Time;durP1;ratioP1;P1;durP2;ratioP2;P2;SDS_P1;SDS_P2;PMS_P1;PMS_P2;Temp;Humidity;BMP_temperature;BMP_pressure;BME280_temperature;BME280_humidity;BME280_pressure;Samples;Min_cycle;Max_cycle;Signal;HPM_P1;HPM_P2
2022/11/01 00:01:43;;;;;;;117.43;35.87;;;12.40;99.90;;;;;;4651514;29;20674;-83
2022/11/01 00:31:59;;;;;;;110.70;33.10;;;12.30;99.90;;;;;;4576662;30;20260;-83
2022/11/01 01:02:42;;;;;;;75.40;29.80;;;12.00;99.90;;;;;;4755019;29;20204;-82
2022/11/01 01:32:50;;;;;;;91.03;30.67;;;11.70;99.90;;;;;;4679901;29;20395;-83
2022/11/01 01:58:31;;;;;;;68.20;27.93;;;11.50;99.90;;;;;;4695802;29;20210;-85
2022/11/01 02:28:29;;;;;;;58.40;23.93;;;11.30;99.90;;;;;;4685656;29;20521;-85
2022/11/01 02:49:07;;;;;;;47.60;22.87;;;11.10;99.90;;;;;;4643506;30;20231;-85
2022/11/01 03:14:35;;;;;;;104.13;29.80;;;11.10;99.90;;;;;;4561960;30;20318;-84
2022/11/01 03:59:44;;;;;;;73.07;26.37;;;10.80;99.90;;;;;;4798591;28;20426;-85
2022/11/01 04:25:34;;;;;;;77.30;26.37;;;10.70;99.90;;;;;;4623320;30;20287;-85
2022/11/01 04:55:24;;;;;;;94.20;28.77;;;10.60;99.90;;;;;;4647307;29;20498;-84
2022/11/01 05:20:46;;;;;;;87.07;28.63;;;10.90;99.90;;;;;;4673728;29;20585;-84
2022/11/01 05:41:04;;;;;;;92.50;31.13;;;11.00;99.90;;;;;;4705795;29;20486;-84
2022/11/01 06:01:57;;;;;;;117.73;32.30;;;11.20;99.90;;;;;;4679534;29;20269;-85
2022/11/01 06:32:17;;;;;;;105.40;35.90;;;11.30;99.90;;;;;;4762857;29;20223;-87
2022/11/01 07:02:31;;;;;;;90.07;30.83;;;11.20;99.90;;;;;;4815146;29;20660;-85
2022/11/01 07:23:04;;;;;;;81.10;31.97;;;11.40;99.90;;;;;;4696336;30;20228;-84
2022/11/01 08:43:29;;;;;;;58.37;27.37;;;11.70;99.90;;;;;;4804020;29;20899;-84
2022/11/01 09:14:00;;;;;;;52.50;26.53;;;11.90;99.90;;;;;;4762491;29;20545;-83
2022/11/01 09:45:00;;;;;;;43.83;26.33;;;12.10;99.90;;;;;;4739818;29;20224;-87
2022/11/01 09:49:20;;;;;;;43.07;24.67;;;12.20;99.90;;;;;;4651269;30;20535;-84
2022/11/01 10:19:51;;;;;;;39.57;24.43;;;12.70;99.90;;;;;;4632893;30;20490;-84
2022/11/01 10:50:17;;;;;;;40.93;23.93;;;12.30;99.90;;;;;;4700637;29;20707;-86
2022/11/01 11:15:35;;;;;;;44.00;25.93;;;12.60;99.90;;;;;;4583034;30;20679;-85
2022/11/01 11:40:58;;;;;;;45.50;26.23;;;12.30;99.90;;;;;;4655856;30;20586;-86
2022/11/01 12:06:48;;;;;;;41.03;25.27;;;12.20;99.90;;;;;;4588986;30;20246;-84
2022/11/01 12:27:05;;;;;;;41.33;25.13;;;12.40;99.90;;;;;;4591531;30;20374;-83
2022/11/01 13:07:22;;;;;;;51.27;29.33;;;12.10;99.90;;;;;;4668162;30;20222;-86
2022/11/01 13:28:06;;;;;;;55.30;29.67;;;12.00;99.90;;;;;;4569380;30;21024;-85
2022/11/01 14:08:48;;;;;;;68.43;30.47;;;11.60;99.90;;;;;;4640771;30;20213;-83
2022/11/01 14:39:05;;;;;;;64.17;29.57;;;11.50;99.90;;;;;;4778236;29;20201;-83
2022/11/01 15:09:24;;;;;;;56.43;25.83;;;11.40;99.90;;;;;;4555900;30;20716;-85
2022/11/01 15:39:57;;;;;;;64.00;27.40;;;11.40;99.90;;;;;;4535850;30;20317;-84
2022/11/01 16:10:32;;;;;;;59.53;27.67;;;11.50;99.90;;;;;;4746036;29;20214;-83
2022/11/01 17:06:10;;;;;;;82.23;35.60;;;11.50;99.90;;;;;;4590900;30;20250;-84
2022/11/01 17:31:25;;;;;;;103.13;36.27;;;11.50;99.90;;;;;;4558971;31;21478;-84
2022/11/01 19:12:36;;;;;;;95.17;36.10;;;11.00;99.90;;;;;;4481822;31;20290;-84
2022/11/01 19:43:34;;;;;;;88.57;37.40;;;10.90;99.90;;;;;;4613916;30;20469;-84
2022/11/01 20:13:29;;;;;;;112.30;42.67;;;10.90;99.90;;;;;;4470032;31;20811;-84
2022/11/01 20:44:02;;;;;;;98.93;41.30;;;11.00;99.90;;;;;;4664175;30;20272;-84
2022/11/01 21:09:42;;;;;;;109.27;46.63;;;11.10;99.90;;;;;;4747191;29;20231;-84
2022/11/01 21:19:45;;;;;;;111.33;46.20;;;11.10;99.90;;;;;;5878972;23;20555;-82
2022/11/01 22:00:29;;;;;;;94.27;44.00;;;11.20;99.90;;;;;;4842523;29;20221;-83
2022/11/01 22:41:11;;;;;;;86.13;37.90;;;11.10;99.90;;;;;;4871438;28;20223;-82
2022/11/01 22:45:36;;;;;;;72.93;37.90;;;11.10;99.90;;;;;;4779025;29;20762;-82
2022/11/01 23:06:32;;;;;;;64.17;35.43;;;10.90;99.90;;;;;;4721660;30;20216;-85
